Eau Claire, Wisconsin
Current Conditions -  °F | °C
As of 12:56 AM on Thursday 23 Oct 2014 (Local Time) from KEAU Reporting Station
Overcast Overcast  
Wind Chill: 51°   Ceiling: 9500
Heat Index: 51°   Visibility: 10mi
Dew Point: 40°   Wind: 13mph
Humidity: 66%   Direction: 160°SSE
Pressure: 30.08"   Gusts: NA
Location:  44.82°N, 91.5°W
Report Text: KEAU 230556Z AUTO 16011KT 10SM SCT075 OVC095 11/04 A3008 RMK AO2 RAB02E15 SLP189 P0000 60003 T01060044 10133 20106 401560017 58012
Loading
Personal Weather Stations






























Interactive Weather Map New forecast layout! Learn more

10-Day Weather Forecast

Advertisements
Track Severe Weather on mobile